DLH7KH EDDF-LIRF
Flight info
| Callsign | DLH7KH |
|---|---|
| Flight time | 1h 29m |
| Altitude | 35000 |
| Route | ANEKI2L/18 ANEKI Y163 NATOR DCT TRA DCT RIPUS DCT GERSA DCT SOSON DCT ODINA DCT SRN DCT TINKU DCT XIBIL |
| Aircraft | A321/M-SDE2E3FGIJ1LORWXYZ/HB1 |
Departure
| Time | 2026-05-06 15:48 |
|---|---|
| Airport | Frankfurt Main Airport (EDDF) |
Arrival
| Time | 2026-05-06 17:17 |
|---|---|
| Airport | Rome–Fiumicino Leonardo da Vinci International Airport (LIRF) |
| Time | Latitude | Longitude | Altitude | Speed | Heading |
|---|---|---|---|---|---|
| 2026-05-06 15:24 | 50.04852 | 8.56947 | 363 ft | 0 kts | 295° |
| 2026-05-06 15:33 | 50.04852 | 8.56948 | 356 ft | 0 kts | 295° |
| 2026-05-06 15:37 | 50.04851 | 8.56951 | 356 ft | 2 kts | 295° |
| 2026-05-06 15:37 | 50.04840 | 8.56988 | 356 ft | 4 kts | 294° |
| 2026-05-06 15:38 | 50.04831 | 8.57018 | 363 ft | 4 kts | 282° |
| 2026-05-06 15:38 | 50.04833 | 8.57054 | 356 ft | 4 kts | 231° |
| 2026-05-06 15:38 | 50.04846 | 8.57071 | 361 ft | 0 kts | 204° |
| 2026-05-06 15:38 | 50.04826 | 8.57058 | 356 ft | 4 kts | 205° |
| 2026-05-06 15:39 | 50.04802 | 8.57040 | 359 ft | 4 kts | 205° |
| 2026-05-06 15:39 | 50.04796 | 8.57036 | 356 ft | 0 kts | 205° |
| 2026-05-06 15:42 | 50.04767 | 8.57015 | 362 ft | 11 kts | 205° |
| 2026-05-06 15:42 | 50.04688 | 8.56957 | 358 ft | 13 kts | 204° |
| 2026-05-06 15:42 | 50.04606 | 8.56912 | 358 ft | 12 kts | 194° |
| 2026-05-06 15:43 | 50.04534 | 8.56887 | 359 ft | 9 kts | 193° |
| 2026-05-06 15:43 | 50.04474 | 8.56865 | 359 ft | 9 kts | 193° |
| 2026-05-06 15:43 | 50.04411 | 8.56844 | 360 ft | 11 kts | 190° |
| 2026-05-06 15:43 | 50.04319 | 8.56827 | 360 ft | 16 kts | 175° |
| 2026-05-06 15:44 | 50.04291 | 8.56952 | 359 ft | 14 kts | 60° |
| 2026-05-06 15:44 | 50.04323 | 8.57089 | 364 ft | 13 kts | 71° |
| 2026-05-06 15:44 | 50.04350 | 8.57212 | 361 ft | 12 kts | 70° |
| 2026-05-06 15:44 | 50.04379 | 8.57332 | 361 ft | 12 kts | 70° |
| 2026-05-06 15:45 | 50.04407 | 8.57449 | 361 ft | 11 kts | 70° |
| 2026-05-06 15:45 | 50.04431 | 8.57562 | 362 ft | 10 kts | 79° |
| 2026-05-06 15:45 | 50.04414 | 8.57634 | 365 ft | 6 kts | 132° |
| 2026-05-06 15:45 | 50.04358 | 8.57676 | 363 ft | 13 kts | 160° |
| 2026-05-06 15:46 | 50.04262 | 8.57645 | 362 ft | 16 kts | 242° |
| 2026-05-06 15:46 | 50.04250 | 8.57601 | 362 ft | 0 kts | 248° |
| 2026-05-06 15:47 | 50.04237 | 8.57546 | 363 ft | 18 kts | 251° |
| 2026-05-06 15:47 | 50.04102 | 8.56976 | 363 ft | 93 kts | 250° |
| 2026-05-06 15:48 | 50.03803 | 8.55730 | 360 ft | 153 kts | 250° |
| 2026-05-06 15:48 | 50.03419 | 8.54111 | 942 ft | 157 kts | 251° |
| 2026-05-06 15:48 | 50.03033 | 8.52520 | 1707 ft | 155 kts | 250° |
| 2026-05-06 15:48 | 50.02545 | 8.50931 | 2046 ft | 176 kts | 230° |
| 2026-05-06 15:49 | 50.01410 | 8.49988 | 2333 ft | 199 kts | 196° |
| 2026-05-06 15:49 | 50.00010 | 8.49343 | 2593 ft | 218 kts | 195° |
| 2026-05-06 15:49 | 49.98501 | 8.49379 | 3109 ft | 227 kts | 159° |
| 2026-05-06 15:49 | 49.97256 | 8.50861 | 3821 ft | 230 kts | 130° |
| 2026-05-06 15:50 | 49.96121 | 8.52589 | 4553 ft | 231 kts | 152° |
| 2026-05-06 15:50 | 49.94522 | 8.53236 | 4865 ft | 250 kts | 181° |
| 2026-05-06 15:50 | 49.92709 | 8.53203 | 5253 ft | 267 kts | 181° |
| 2026-05-06 15:50 | 49.90825 | 8.53253 | 5937 ft | 274 kts | 180° |
| 2026-05-06 15:51 | 49.88915 | 8.53351 | 6730 ft | 275 kts | 179° |
| 2026-05-06 15:51 | 49.86985 | 8.53491 | 7492 ft | 279 kts | 179° |
| 2026-05-06 15:51 | 49.85030 | 8.53638 | 8252 ft | 282 kts | 178° |
| 2026-05-06 15:51 | 49.83069 | 8.53783 | 8968 ft | 285 kts | 178° |
| 2026-05-06 15:52 | 49.81062 | 8.53931 | 9651 ft | 288 kts | 178° |
| 2026-05-06 15:52 | 49.79058 | 8.54076 | 10100 ft | 301 kts | 178° |
| 2026-05-06 15:52 | 49.76885 | 8.53990 | 10239 ft | 322 kts | 186° |
| 2026-05-06 15:52 | 49.74601 | 8.53686 | 10598 ft | 334 kts | 186° |
| 2026-05-06 15:53 | 49.72270 | 8.53368 | 11182 ft | 338 kts | 186° |
| 2026-05-06 15:53 | 49.69914 | 8.53097 | 11814 ft | 341 kts | 184° |
| 2026-05-06 15:53 | 49.68325 | 8.52981 | 12235 ft | 343 kts | 183° |
| 2026-05-06 15:53 | 49.66982 | 8.52905 | 12571 ft | 343 kts | 182° |
| 2026-05-06 15:54 | 49.64574 | 8.52808 | 13165 ft | 346 kts | 182° |
| 2026-05-06 15:54 | 49.62145 | 8.52731 | 13739 ft | 349 kts | 182° |
| 2026-05-06 15:54 | 49.59729 | 8.52651 | 14312 ft | 352 kts | 182° |
| 2026-05-06 15:54 | 49.57264 | 8.52558 | 14891 ft | 355 kts | 182° |
| 2026-05-06 15:55 | 49.54784 | 8.52453 | 15453 ft | 358 kts | 182° |
| 2026-05-06 15:55 | 49.52282 | 8.52335 | 16008 ft | 360 kts | 182° |
| 2026-05-06 15:55 | 49.49767 | 8.52213 | 16555 ft | 363 kts | 182° |
| 2026-05-06 15:55 | 49.47227 | 8.52085 | 17092 ft | 365 kts | 182° |
| 2026-05-06 15:56 | 49.44692 | 8.51956 | 17591 ft | 368 kts | 182° |
| 2026-05-06 15:56 | 49.42137 | 8.51828 | 18094 ft | 370 kts | 182° |
| 2026-05-06 15:56 | 49.39547 | 8.51700 | 18589 ft | 373 kts | 182° |
| 2026-05-06 15:56 | 49.37117 | 8.51580 | 19042 ft | 375 kts | 182° |
| 2026-05-06 15:57 | 49.34491 | 8.51453 | 19528 ft | 378 kts | 182° |
| 2026-05-06 15:57 | 49.31890 | 8.51331 | 19985 ft | 380 kts | 182° |
| 2026-05-06 15:57 | 49.29203 | 8.51206 | 20437 ft | 382 kts | 182° |
| 2026-05-06 15:57 | 49.26567 | 8.51080 | 20867 ft | 385 kts | 182° |
| 2026-05-06 15:58 | 49.25497 | 8.51027 | 21040 ft | 386 kts | 182° |
| 2026-05-06 15:58 | 49.22813 | 8.50897 | 21477 ft | 388 kts | 182° |
| 2026-05-06 15:58 | 49.20112 | 8.50766 | 21895 ft | 390 kts | 182° |
| 2026-05-06 15:58 | 49.17388 | 8.50634 | 22298 ft | 392 kts | 182° |
| 2026-05-06 15:59 | 49.14655 | 8.50501 | 22686 ft | 394 kts | 182° |
| 2026-05-06 15:59 | 49.11908 | 8.50365 | 23079 ft | 396 kts | 182° |
| 2026-05-06 15:59 | 49.09142 | 8.50231 | 23473 ft | 398 kts | 182° |
| 2026-05-06 15:59 | 49.06361 | 8.50101 | 23850 ft | 400 kts | 182° |
| 2026-05-06 16:00 | 49.03578 | 8.49974 | 24220 ft | 403 kts | 182° |
| 2026-05-06 16:00 | 49.00774 | 8.49842 | 24595 ft | 405 kts | 182° |
| 2026-05-06 16:00 | 48.97972 | 8.49710 | 24970 ft | 406 kts | 182° |
| 2026-05-06 16:01 | 48.95917 | 8.49598 | 25242 ft | 407 kts | 182° |
| 2026-05-06 16:01 | 48.93085 | 8.49453 | 25621 ft | 408 kts | 182° |
| 2026-05-06 16:01 | 48.90231 | 8.49320 | 25981 ft | 410 kts | 182° |
| 2026-05-06 16:01 | 48.87416 | 8.49193 | 26318 ft | 411 kts | 182° |
| 2026-05-06 16:02 | 48.84550 | 8.49062 | 26663 ft | 413 kts | 182° |
| 2026-05-06 16:02 | 48.81671 | 8.48930 | 27004 ft | 414 kts | 182° |
| 2026-05-06 16:02 | 48.78783 | 8.48793 | 27336 ft | 415 kts | 182° |
| 2026-05-06 16:02 | 48.75882 | 8.48654 | 27668 ft | 417 kts | 183° |
| 2026-05-06 16:03 | 48.72974 | 8.48516 | 27999 ft | 418 kts | 183° |
| 2026-05-06 16:03 | 48.70059 | 8.48375 | 28324 ft | 419 kts | 183° |
| 2026-05-06 16:03 | 48.67131 | 8.48232 | 28635 ft | 421 kts | 183° |
| 2026-05-06 16:03 | 48.64120 | 8.48085 | 28941 ft | 422 kts | 183° |
| 2026-05-06 16:04 | 48.61179 | 8.47944 | 29231 ft | 424 kts | 183° |
| 2026-05-06 16:04 | 48.58224 | 8.47808 | 29527 ft | 425 kts | 183° |
| 2026-05-06 16:04 | 48.55261 | 8.47678 | 29824 ft | 426 kts | 183° |
| 2026-05-06 16:04 | 48.52287 | 8.47542 | 30115 ft | 428 kts | 183° |
| 2026-05-06 16:05 | 48.49345 | 8.47404 | 30380 ft | 429 kts | 183° |
| 2026-05-06 16:05 | 48.46359 | 8.47263 | 30598 ft | 431 kts | 183° |
| 2026-05-06 16:05 | 48.43349 | 8.47119 | 30839 ft | 432 kts | 183° |
| 2026-05-06 16:05 | 48.40333 | 8.46978 | 31071 ft | 434 kts | 183° |
| 2026-05-06 16:06 | 48.37303 | 8.46837 | 31336 ft | 434 kts | 183° |
| 2026-05-06 16:06 | 48.34297 | 8.46700 | 31632 ft | 432 kts | 183° |
| 2026-05-06 16:06 | 48.31287 | 8.46561 | 31913 ft | 431 kts | 183° |
| 2026-05-06 16:06 | 48.28288 | 8.46421 | 32177 ft | 431 kts | 183° |
| 2026-05-06 16:07 | 48.25287 | 8.46280 | 32446 ft | 430 kts | 183° |
| 2026-05-06 16:07 | 48.22334 | 8.46140 | 32701 ft | 430 kts | 183° |
| 2026-05-06 16:07 | 48.19344 | 8.45999 | 32957 ft | 429 kts | 183° |
| 2026-05-06 16:07 | 48.16344 | 8.45861 | 33211 ft | 429 kts | 183° |
| 2026-05-06 16:08 | 48.13354 | 8.45721 | 33456 ft | 428 kts | 183° |
| 2026-05-06 16:08 | 48.10410 | 8.45585 | 33705 ft | 428 kts | 183° |
| 2026-05-06 16:08 | 48.07435 | 8.45453 | 33952 ft | 427 kts | 183° |
| 2026-05-06 16:08 | 48.04469 | 8.45319 | 34192 ft | 427 kts | 183° |
| 2026-05-06 16:09 | 48.01500 | 8.45182 | 34411 ft | 427 kts | 183° |
| 2026-05-06 16:09 | 47.98533 | 8.45044 | 34611 ft | 427 kts | 183° |
| 2026-05-06 16:09 | 47.95555 | 8.44908 | 34800 ft | 427 kts | 183° |
| 2026-05-06 16:09 | 47.92569 | 8.44778 | 34873 ft | 425 kts | 183° |
| 2026-05-06 16:10 | 47.86685 | 8.44512 | 34888 ft | 421 kts | 184° |
| 2026-05-06 16:10 | 47.80853 | 8.44235 | 34887 ft | 421 kts | 184° |
| 2026-05-06 16:11 | 47.75004 | 8.43970 | 34888 ft | 420 kts | 183° |
| 2026-05-06 16:11 | 47.69187 | 8.43746 | 34887 ft | 421 kts | 180° |
| 2026-05-06 16:12 | 47.63342 | 8.44524 | 34893 ft | 422 kts | 176° |
| 2026-05-06 16:12 | 47.57477 | 8.45394 | 34899 ft | 422 kts | 176° |
| 2026-05-06 16:13 | 47.51639 | 8.46248 | 34905 ft | 422 kts | 176° |
| 2026-05-06 16:13 | 47.45779 | 8.47105 | 34909 ft | 422 kts | 176° |
| 2026-05-06 16:14 | 47.39941 | 8.47962 | 34912 ft | 422 kts | 176° |
| 2026-05-06 16:14 | 47.34093 | 8.48820 | 34914 ft | 422 kts | 176° |
| 2026-05-06 16:15 | 47.28240 | 8.49675 | 34915 ft | 422 kts | 176° |
| 2026-05-06 16:15 | 47.22432 | 8.50522 | 34919 ft | 422 kts | 176° |
| 2026-05-06 16:16 | 47.16586 | 8.51385 | 34921 ft | 422 kts | 177° |
| 2026-05-06 16:16 | 47.10731 | 8.52232 | 34927 ft | 421 kts | 177° |
| 2026-05-06 16:17 | 47.04930 | 8.53068 | 34929 ft | 421 kts | 177° |
| 2026-05-06 16:17 | 46.99101 | 8.53910 | 34930 ft | 421 kts | 177° |
| 2026-05-06 16:18 | 46.93277 | 8.54756 | 34931 ft | 421 kts | 177° |
| 2026-05-06 16:18 | 46.88421 | 8.55455 | 34929 ft | 421 kts | 177° |
| 2026-05-06 16:19 | 46.82573 | 8.56283 | 34936 ft | 420 kts | 177° |
| 2026-05-06 16:19 | 46.76799 | 8.57110 | 34934 ft | 420 kts | 177° |
| 2026-05-06 16:20 | 46.70963 | 8.57953 | 34932 ft | 420 kts | 178° |
| 2026-05-06 16:20 | 46.65175 | 8.58776 | 34935 ft | 420 kts | 177° |
| 2026-05-06 16:21 | 46.59355 | 8.59607 | 34935 ft | 420 kts | 177° |
| 2026-05-06 16:21 | 46.53518 | 8.60440 | 34936 ft | 420 kts | 177° |
| 2026-05-06 16:22 | 46.47698 | 8.61267 | 34928 ft | 419 kts | 177° |
| 2026-05-06 16:22 | 46.41919 | 8.62072 | 34930 ft | 419 kts | 178° |
| 2026-05-06 16:23 | 46.36106 | 8.62885 | 34925 ft | 419 kts | 177° |
| 2026-05-06 16:23 | 46.30285 | 8.63708 | 34921 ft | 419 kts | 177° |
| 2026-05-06 16:24 | 46.24520 | 8.64523 | 34916 ft | 418 kts | 178° |
| 2026-05-06 16:24 | 46.18728 | 8.65337 | 34910 ft | 418 kts | 177° |
| 2026-05-06 16:25 | 46.12935 | 8.66190 | 34911 ft | 420 kts | 174° |
| 2026-05-06 16:25 | 46.07363 | 8.68886 | 34906 ft | 428 kts | 155° |
| 2026-05-06 16:26 | 46.02158 | 8.72975 | 34901 ft | 429 kts | 155° |
| 2026-05-06 16:26 | 45.96915 | 8.77089 | 34898 ft | 429 kts | 155° |
| 2026-05-06 16:27 | 45.91654 | 8.81197 | 34886 ft | 429 kts | 155° |
| 2026-05-06 16:27 | 45.86398 | 8.85284 | 34885 ft | 430 kts | 156° |
| 2026-05-06 16:28 | 45.81138 | 8.89360 | 34876 ft | 430 kts | 155° |
| 2026-05-06 16:28 | 45.75896 | 8.93422 | 34875 ft | 430 kts | 155° |
| 2026-05-06 16:29 | 45.70638 | 8.97493 | 34869 ft | 429 kts | 156° |
| 2026-05-06 16:29 | 45.65366 | 9.01560 | 34864 ft | 429 kts | 156° |
| 2026-05-06 16:30 | 45.61016 | 9.05007 | 34859 ft | 430 kts | 154° |
| 2026-05-06 16:30 | 45.55031 | 9.10079 | 34849 ft | 431 kts | 153° |
| 2026-05-06 16:31 | 45.49867 | 9.14468 | 34841 ft | 431 kts | 154° |
| 2026-05-06 16:31 | 45.44687 | 9.18792 | 34835 ft | 431 kts | 154° |
| 2026-05-06 16:32 | 45.39526 | 9.23068 | 34834 ft | 431 kts | 154° |
| 2026-05-06 16:32 | 45.34342 | 9.27350 | 34831 ft | 430 kts | 154° |
| 2026-05-06 16:33 | 45.29152 | 9.31642 | 34832 ft | 431 kts | 154° |
| 2026-05-06 16:34 | 45.21370 | 9.38060 | 34831 ft | 431 kts | 154° |
| 2026-05-06 16:34 | 45.16207 | 9.42301 | 34832 ft | 431 kts | 154° |
| 2026-05-06 16:35 | 45.11011 | 9.46567 | 34833 ft | 431 kts | 154° |
| 2026-05-06 16:35 | 45.05814 | 9.50825 | 34833 ft | 431 kts | 154° |
| 2026-05-06 16:36 | 45.00614 | 9.55081 | 34831 ft | 431 kts | 154° |
| 2026-05-06 16:36 | 44.95443 | 9.59301 | 34819 ft | 432 kts | 154° |
| 2026-05-06 16:37 | 44.90226 | 9.63542 | 34830 ft | 432 kts | 154° |
| 2026-05-06 16:37 | 44.85002 | 9.67774 | 34831 ft | 433 kts | 154° |
| 2026-05-06 16:38 | 44.79781 | 9.72009 | 34832 ft | 433 kts | 154° |
| 2026-05-06 16:38 | 44.74581 | 9.76215 | 34832 ft | 433 kts | 154° |
| 2026-05-06 16:39 | 44.69343 | 9.80443 | 34833 ft | 433 kts | 154° |
| 2026-05-06 16:39 | 44.64101 | 9.84667 | 34839 ft | 434 kts | 154° |
| 2026-05-06 16:40 | 44.58890 | 9.88848 | 34843 ft | 434 kts | 154° |
| 2026-05-06 16:40 | 44.53638 | 9.93059 | 34853 ft | 434 kts | 154° |
| 2026-05-06 16:41 | 44.48381 | 9.97276 | 34861 ft | 435 kts | 154° |
| 2026-05-06 16:41 | 44.43115 | 10.01480 | 34872 ft | 435 kts | 154° |
| 2026-05-06 16:42 | 44.37891 | 10.05642 | 34885 ft | 436 kts | 154° |
| 2026-05-06 16:42 | 44.32614 | 10.09842 | 34902 ft | 436 kts | 154° |
| 2026-05-06 16:43 | 44.27322 | 10.14036 | 34917 ft | 437 kts | 154° |
| 2026-05-06 16:43 | 44.22037 | 10.18212 | 34929 ft | 436 kts | 154° |
| 2026-05-06 16:44 | 44.16788 | 10.22357 | 34938 ft | 436 kts | 154° |
| 2026-05-06 16:44 | 44.11513 | 10.26525 | 34946 ft | 436 kts | 154° |
| 2026-05-06 16:45 | 44.06234 | 10.30683 | 34947 ft | 435 kts | 154° |
| 2026-05-06 16:45 | 44.00953 | 10.34826 | 34951 ft | 435 kts | 154° |
| 2026-05-06 16:46 | 43.95664 | 10.38966 | 34956 ft | 436 kts | 154° |
| 2026-05-06 16:46 | 43.90416 | 10.43074 | 34958 ft | 435 kts | 154° |
| 2026-05-06 16:47 | 43.85131 | 10.47211 | 34957 ft | 435 kts | 154° |
| 2026-05-06 16:47 | 43.79841 | 10.51332 | 34957 ft | 435 kts | 154° |
| 2026-05-06 16:48 | 43.74426 | 10.54960 | 34958 ft | 430 kts | 165° |
| 2026-05-06 16:48 | 43.68779 | 10.57554 | 34963 ft | 430 kts | 165° |
| 2026-05-06 16:49 | 43.63094 | 10.60195 | 34965 ft | 430 kts | 165° |
| 2026-05-06 16:49 | 43.57454 | 10.62823 | 34965 ft | 430 kts | 165° |
| 2026-05-06 16:50 | 43.51762 | 10.65461 | 34963 ft | 430 kts | 165° |
| 2026-05-06 16:50 | 43.46420 | 10.67936 | 34962 ft | 430 kts | 165° |
| 2026-05-06 16:51 | 43.40779 | 10.70526 | 34960 ft | 429 kts | 165° |
| 2026-05-06 16:51 | 43.35103 | 10.73129 | 34958 ft | 429 kts | 165° |
| 2026-05-06 16:51 | 43.32265 | 10.74433 | 34811 ft | 428 kts | 165° |
| 2026-05-06 16:52 | 43.29452 | 10.75733 | 34560 ft | 424 kts | 165° |
| 2026-05-06 16:52 | 43.26699 | 10.77004 | 34315 ft | 421 kts | 165° |
| 2026-05-06 16:52 | 43.23922 | 10.78280 | 34063 ft | 419 kts | 165° |
| 2026-05-06 16:52 | 43.21169 | 10.79542 | 33801 ft | 414 kts | 165° |
| 2026-05-06 16:53 | 43.18443 | 10.80796 | 33362 ft | 410 kts | 165° |
| 2026-05-06 16:53 | 43.15748 | 10.82035 | 32914 ft | 406 kts | 165° |
| 2026-05-06 16:53 | 43.13079 | 10.83257 | 32448 ft | 402 kts | 165° |
| 2026-05-06 16:53 | 43.10435 | 10.84461 | 31987 ft | 399 kts | 166° |
| 2026-05-06 16:54 | 43.07843 | 10.85640 | 31552 ft | 395 kts | 165° |
| 2026-05-06 16:54 | 43.05242 | 10.86822 | 31117 ft | 391 kts | 166° |
| 2026-05-06 16:54 | 43.02664 | 10.87992 | 30689 ft | 388 kts | 166° |
| 2026-05-06 16:54 | 43.00116 | 10.89149 | 30248 ft | 384 kts | 166° |
| 2026-05-06 16:55 | 42.97593 | 10.90294 | 29833 ft | 380 kts | 166° |
| 2026-05-06 16:55 | 42.95093 | 10.91421 | 29428 ft | 376 kts | 166° |
| 2026-05-06 16:55 | 42.92649 | 10.92523 | 29027 ft | 373 kts | 166° |
| 2026-05-06 16:55 | 42.90204 | 10.93630 | 28632 ft | 368 kts | 165° |
| 2026-05-06 16:56 | 42.87790 | 10.94723 | 28249 ft | 363 kts | 165° |
| 2026-05-06 16:56 | 42.85408 | 10.95806 | 27870 ft | 359 kts | 165° |
| 2026-05-06 16:56 | 42.83046 | 10.96917 | 27475 ft | 357 kts | 161° |
| 2026-05-06 16:56 | 42.80847 | 10.98499 | 27077 ft | 358 kts | 149° |
| 2026-05-06 16:57 | 42.78929 | 11.00670 | 26690 ft | 359 kts | 137° |
| 2026-05-06 16:57 | 42.77370 | 11.03335 | 26301 ft | 361 kts | 126° |
| 2026-05-06 16:57 | 42.76025 | 11.06216 | 25914 ft | 360 kts | 126° |
| 2026-05-06 16:57 | 42.74679 | 11.09080 | 25502 ft | 358 kts | 126° |
| 2026-05-06 16:58 | 42.73338 | 11.11913 | 25099 ft | 355 kts | 126° |
| 2026-05-06 16:58 | 42.72000 | 11.14732 | 24695 ft | 353 kts | 126° |
| 2026-05-06 16:58 | 42.70673 | 11.17537 | 24274 ft | 352 kts | 127° |
| 2026-05-06 16:58 | 42.69346 | 11.20332 | 23860 ft | 352 kts | 126° |
| 2026-05-06 16:59 | 42.68033 | 11.23091 | 23433 ft | 350 kts | 126° |
| 2026-05-06 16:59 | 42.66708 | 11.25869 | 23009 ft | 348 kts | 126° |
| 2026-05-06 16:59 | 42.65397 | 11.28621 | 22583 ft | 346 kts | 126° |
| 2026-05-06 16:59 | 42.64095 | 11.31355 | 22266 ft | 340 kts | 126° |
| 2026-05-06 17:00 | 42.62819 | 11.34046 | 22194 ft | 338 kts | 126° |
| 2026-05-06 17:00 | 42.61566 | 11.36691 | 22117 ft | 338 kts | 126° |
| 2026-05-06 17:00 | 42.60289 | 11.39378 | 22040 ft | 338 kts | 126° |
| 2026-05-06 17:00 | 42.59013 | 11.42055 | 21967 ft | 338 kts | 126° |
| 2026-05-06 17:01 | 42.57733 | 11.44734 | 21891 ft | 337 kts | 126° |
| 2026-05-06 17:01 | 42.56435 | 11.47375 | 21814 ft | 336 kts | 130° |
| 2026-05-06 17:01 | 42.54893 | 11.49728 | 21740 ft | 332 kts | 140° |
| 2026-05-06 17:01 | 42.53092 | 11.51670 | 21666 ft | 329 kts | 151° |
| 2026-05-06 17:02 | 42.51102 | 11.53156 | 21595 ft | 324 kts | 159° |
| 2026-05-06 17:02 | 42.48991 | 11.54215 | 21523 ft | 324 kts | 164° |
| 2026-05-06 17:02 | 42.46875 | 11.55195 | 21151 ft | 328 kts | 164° |
| 2026-05-06 17:02 | 42.44674 | 11.56221 | 20336 ft | 338 kts | 163° |
| 2026-05-06 17:03 | 42.42436 | 11.57272 | 19781 ft | 339 kts | 163° |
| 2026-05-06 17:03 | 42.40214 | 11.58326 | 19307 ft | 337 kts | 163° |
| 2026-05-06 17:03 | 42.38008 | 11.59370 | 18845 ft | 335 kts | 163° |
| 2026-05-06 17:03 | 42.35839 | 11.60391 | 18401 ft | 332 kts | 163° |
| 2026-05-06 17:04 | 42.33666 | 11.61409 | 17953 ft | 330 kts | 163° |
| 2026-05-06 17:04 | 42.31502 | 11.62414 | 17502 ft | 327 kts | 163° |
| 2026-05-06 17:04 | 42.29358 | 11.63410 | 17041 ft | 325 kts | 163° |
| 2026-05-06 17:04 | 42.27220 | 11.64404 | 16574 ft | 323 kts | 163° |
| 2026-05-06 17:05 | 42.25099 | 11.65383 | 16110 ft | 321 kts | 163° |
| 2026-05-06 17:05 | 42.22987 | 11.66310 | 15649 ft | 319 kts | 164° |
| 2026-05-06 17:05 | 42.20868 | 11.67217 | 15187 ft | 317 kts | 164° |
| 2026-05-06 17:05 | 42.18770 | 11.68108 | 14741 ft | 315 kts | 164° |
| 2026-05-06 17:06 | 42.16714 | 11.68980 | 14295 ft | 313 kts | 164° |
| 2026-05-06 17:06 | 42.14642 | 11.69863 | 13848 ft | 311 kts | 164° |
| 2026-05-06 17:06 | 42.12567 | 11.70748 | 13361 ft | 311 kts | 164° |
| 2026-05-06 17:06 | 42.10512 | 11.71629 | 12802 ft | 304 kts | 164° |
| 2026-05-06 17:07 | 42.08518 | 11.72495 | 12184 ft | 299 kts | 161° |
| 2026-05-06 17:07 | 42.06788 | 11.73909 | 11484 ft | 295 kts | 133° |
| 2026-05-06 17:07 | 42.05824 | 11.76297 | 10712 ft | 293 kts | 102° |
| 2026-05-06 17:07 | 42.05897 | 11.79002 | 9913 ft | 291 kts | 75° |
| 2026-05-06 17:08 | 42.06498 | 11.81616 | 9066 ft | 291 kts | 73° |
| 2026-05-06 17:08 | 42.06909 | 11.83332 | 8542 ft | 289 kts | 73° |
| 2026-05-06 17:08 | 42.07732 | 11.86719 | 7559 ft | 284 kts | 73° |
| 2026-05-06 17:08 | 42.08339 | 11.89237 | 6814 ft | 280 kts | 73° |
| 2026-05-06 17:09 | 42.08732 | 11.90883 | 6330 ft | 278 kts | 73° |
| 2026-05-06 17:09 | 42.09313 | 11.93323 | 5850 ft | 265 kts | 73° |
| 2026-05-06 17:09 | 42.09864 | 11.95639 | 5608 ft | 256 kts | 73° |
| 2026-05-06 17:09 | 42.10404 | 11.97917 | 5336 ft | 253 kts | 73° |
| 2026-05-06 17:10 | 42.10928 | 12.00162 | 5079 ft | 248 kts | 76° |
| 2026-05-06 17:10 | 42.11126 | 12.02409 | 4850 ft | 237 kts | 93° |
| 2026-05-06 17:10 | 42.10830 | 12.04561 | 4599 ft | 232 kts | 110° |
| 2026-05-06 17:10 | 42.10115 | 12.06465 | 4345 ft | 230 kts | 126° |
| 2026-05-06 17:11 | 42.09066 | 12.08086 | 4100 ft | 229 kts | 134° |
| 2026-05-06 17:11 | 42.07981 | 12.09655 | 3841 ft | 229 kts | 133° |
| 2026-05-06 17:11 | 42.06903 | 12.11228 | 3602 ft | 229 kts | 133° |
| 2026-05-06 17:11 | 42.05830 | 12.12798 | 3349 ft | 227 kts | 133° |
| 2026-05-06 17:12 | 42.04766 | 12.14354 | 3109 ft | 227 kts | 133° |
| 2026-05-06 17:12 | 42.03693 | 12.15929 | 3007 ft | 227 kts | 133° |
| 2026-05-06 17:12 | 42.02627 | 12.17496 | 3011 ft | 227 kts | 133° |
| 2026-05-06 17:12 | 42.01468 | 12.18894 | 3004 ft | 218 kts | 149° |
| 2026-05-06 17:13 | 42.00086 | 12.19649 | 3033 ft | 213 kts | 163° |
| 2026-05-06 17:13 | 41.98682 | 12.20236 | 2855 ft | 207 kts | 163° |
| 2026-05-06 17:13 | 41.97351 | 12.20794 | 2637 ft | 191 kts | 163° |
| 2026-05-06 17:13 | 41.96167 | 12.21291 | 2392 ft | 169 kts | 163° |
| 2026-05-06 17:14 | 41.95106 | 12.21737 | 2178 ft | 153 kts | 162° |
| 2026-05-06 17:14 | 41.94116 | 12.22154 | 1983 ft | 146 kts | 162° |
| 2026-05-06 17:14 | 41.93153 | 12.22558 | 1791 ft | 144 kts | 162° |
| 2026-05-06 17:14 | 41.92203 | 12.22957 | 1606 ft | 142 kts | 162° |
| 2026-05-06 17:15 | 41.91261 | 12.23352 | 1415 ft | 141 kts | 162° |
| 2026-05-06 17:15 | 41.90325 | 12.23746 | 1226 ft | 141 kts | 162° |
| 2026-05-06 17:15 | 41.89390 | 12.24138 | 1040 ft | 140 kts | 162° |
| 2026-05-06 17:15 | 41.88460 | 12.24527 | 847 ft | 140 kts | 162° |
| 2026-05-06 17:16 | 41.87539 | 12.24912 | 665 ft | 138 kts | 162° |
| 2026-05-06 17:16 | 41.86625 | 12.25298 | 475 ft | 137 kts | 162° |
| 2026-05-06 17:16 | 41.85711 | 12.25686 | 284 ft | 138 kts | 162° |
| 2026-05-06 17:16 | 41.84805 | 12.26061 | 107 ft | 138 kts | 163° |
| 2026-05-06 17:17 | 41.83918 | 12.26421 | 20 ft | 122 kts | 164° |
| 2026-05-06 17:17 | 41.83245 | 12.26721 | 11 ft | 78 kts | 162° |
| 2026-05-06 17:17 | 41.82883 | 12.26870 | 13 ft | 39 kts | 163° |
| 2026-05-06 17:17 | 41.82634 | 12.26973 | 12 ft | 37 kts | 162° |
| 2026-05-06 17:18 | 41.82396 | 12.27071 | 10 ft | 32 kts | 163° |
| 2026-05-06 17:18 | 41.82226 | 12.27130 | 10 ft | 24 kts | 171° |
| 2026-05-06 17:18 | 41.82057 | 12.27134 | 11 ft | 24 kts | 186° |
| 2026-05-06 17:18 | 41.81899 | 12.27090 | 11 ft | 22 kts | 194° |
| 2026-05-06 17:19 | 41.81764 | 12.27053 | 11 ft | 18 kts | 189° |
| 2026-05-06 17:19 | 41.81651 | 12.27066 | 12 ft | 15 kts | 166° |
| 2026-05-06 17:19 | 41.81562 | 12.27099 | 14 ft | 12 kts | 163° |
| 2026-05-06 17:19 | 41.81485 | 12.27131 | 12 ft | 13 kts | 162° |
| 2026-05-06 17:20 | 41.81377 | 12.27177 | 12 ft | 19 kts | 162° |
| 2026-05-06 17:20 | 41.81232 | 12.27239 | 12 ft | 24 kts | 162° |
| 2026-05-06 17:20 | 41.81069 | 12.27305 | 12 ft | 17 kts | 163° |
| 2026-05-06 17:20 | 41.80955 | 12.27347 | 13 ft | 20 kts | 169° |
| 2026-05-06 17:21 | 41.80797 | 12.27324 | 13 ft | 23 kts | 189° |
| 2026-05-06 17:21 | 41.80671 | 12.27259 | 14 ft | 19 kts | 229° |
| 2026-05-06 17:21 | 41.80615 | 12.27090 | 13 ft | 23 kts | 252° |
| 2026-05-06 17:21 | 41.80563 | 12.26893 | 13 ft | 20 kts | 249° |
| 2026-05-06 17:22 | 41.80509 | 12.26697 | 15 ft | 20 kts | 249° |
| 2026-05-06 17:22 | 41.80459 | 12.26514 | 15 ft | 17 kts | 250° |
| 2026-05-06 17:22 | 41.80410 | 12.26390 | 15 ft | 15 kts | 219° |
| 2026-05-06 17:22 | 41.80311 | 12.26386 | 14 ft | 15 kts | 166° |
| 2026-05-06 17:23 | 41.80206 | 12.26394 | 14 ft | 16 kts | 186° |
| 2026-05-06 17:23 | 41.80107 | 12.26348 | 14 ft | 13 kts | 205° |
| 2026-05-06 17:23 | 41.80019 | 12.26289 | 14 ft | 15 kts | 206° |
| 2026-05-06 17:23 | 41.79922 | 12.26227 | 14 ft | 16 kts | 204° |
| 2026-05-06 17:24 | 41.79822 | 12.26164 | 14 ft | 14 kts | 205° |
| 2026-05-06 17:24 | 41.79769 | 12.26083 | 14 ft | 13 kts | 261° |
| 2026-05-06 17:24 | 41.79794 | 12.25976 | 14 ft | 13 kts | 298° |
| 2026-05-06 17:24 | 41.79836 | 12.25869 | 14 ft | 13 kts | 296° |
| 2026-05-06 17:25 | 41.79876 | 12.25756 | 14 ft | 12 kts | 295° |
| 2026-05-06 17:25 | 41.79910 | 12.25657 | 14 ft | 10 kts | 295° |
| 2026-05-06 17:25 | 41.79910 | 12.25615 | 14 ft | 5 kts | 245° |
| 2026-05-06 17:25 | 41.79884 | 12.25591 | 14 ft | 4 kts | 205° |
| 2026-05-06 17:26 | 41.79867 | 12.25580 | 14 ft | 2 kts | 205° |
| 2026-05-06 17:26 | 41.79861 | 12.25576 | 14 ft | 0 kts | 205° |